Metar z pełnej godziny Komunikat METAR ze strony awiacja.imgw.pl Metar G00 EPRZ METAR EPRZ 291900Z 33007KT CAVOK 13/04 Q1018 =